createdAt,value
2022-11-15T00:10:01.941Z,62.364
2022-11-15T00:25:04.245Z,61.912
2022-11-15T00:40:06.685Z,60.466
2022-11-15T00:55:09.186Z,60.89
2022-11-15T01:10:11.711Z,61.075
2022-11-15T01:25:14.187Z,62.331
2022-11-15T01:40:16.551Z,61.583
2022-11-15T01:55:18.875Z,62.196
2022-11-15T02:10:21.265Z,61.839
2022-11-15T02:25:23.655Z,63.244
2022-11-15T02:40:26.056Z,62.37
2022-11-15T02:55:28.414Z,61.489
2022-11-15T03:10:30.793Z,61.755
2022-11-15T03:25:32.982Z,59.083
2022-11-15T03:40:35.418Z,60.732
2022-11-15T03:55:37.763Z,60.201
2022-11-15T04:10:40.079Z,61.175
2022-11-15T04:25:42.403Z,60.223
2022-11-15T04:40:44.870Z,60.914
2022-11-15T04:55:47.196Z,60.606
2022-11-15T05:10:49.744Z,60.42
2022-11-15T05:25:52.281Z,61.146
2022-11-15T05:40:55.037Z,62.377
2022-11-15T05:55:57.485Z,62.737
2022-11-15T06:10:59.825Z,61.202
2022-11-15T06:26:02.731Z,60.667
2022-11-15T06:41:05.192Z,60.989
2022-11-15T06:56:07.569Z,61.448
2022-11-15T07:11:09.989Z,61.386
2022-11-15T07:26:12.325Z,60.302
2022-11-15T07:41:14.927Z,61.48
2022-11-15T07:56:17.366Z,60.325
2022-11-15T08:11:19.615Z,59.956
2022-11-15T08:26:22.165Z,60.278
2022-11-15T08:41:24.488Z,60.044
2022-11-15T08:56:26.881Z,60.809
2022-11-15T09:11:30.504Z,60.481
2022-11-15T09:26:32.922Z,60.463
2022-11-15T09:41:35.446Z,60.289
2022-11-15T09:56:37.777Z,59.513
2022-11-15T10:11:40.359Z,59.653
2022-11-15T10:26:42.700Z,60.034
2022-11-15T10:41:45.257Z,59.318
2022-11-15T10:56:47.682Z,59.285
2022-11-15T11:11:50.502Z,59.148
2022-11-15T11:26:56.859Z,59.661
2022-11-15T11:41:59.922Z,60.475
2022-11-15T11:57:02.392Z,59.391
2022-11-15T12:12:04.751Z,59.634
2022-11-15T12:27:07.278Z,60.378
2022-11-15T12:42:09.715Z,59.512
2022-11-15T12:57:12.442Z,59.978
2022-11-15T13:12:14.849Z,59.086
2022-11-15T13:27:17.188Z,59.985
2022-11-15T13:42:19.656Z,59.689
2022-11-15T13:57:22.121Z,58.909
2022-11-15T14:12:24.418Z,59.561
2022-11-15T14:27:26.709Z,59.018
2022-11-15T14:42:29.289Z,59.382
2022-11-15T14:57:31.748Z,59.385
2022-11-15T15:12:34.145Z,60.378
2022-11-15T15:27:36.572Z,59.504
2022-11-15T15:42:38.847Z,59.317
2022-11-15T15:57:41.150Z,60.126
2022-11-15T16:12:43.529Z,58.316
2022-11-15T16:27:45.991Z,59.67
2022-11-15T16:42:48.345Z,59.404
2022-11-15T16:57:50.634Z,59.115
2022-11-15T17:12:52.944Z,59.589
2022-11-15T17:27:55.316Z,58.585
2022-11-15T17:42:57.642Z,57.875
2022-11-15T17:57:59.915Z,59.19
2022-11-15T18:13:02.452Z,61.824
2022-11-15T18:28:04.751Z,59.904
2022-11-15T18:43:07.160Z,59.087
2022-11-15T18:58:09.573Z,58.599
2022-11-15T19:13:11.885Z,58.722
2022-11-15T19:28:14.249Z,58.167
2022-11-15T19:43:16.671Z,58.304
2022-11-15T19:58:19.130Z,58.032
2022-11-15T20:13:21.447Z,57.517
2022-11-15T20:28:23.775Z,57.215
2022-11-15T20:43:26.135Z,57.74
2022-11-15T20:58:28.391Z,57.322
2022-11-15T21:13:30.923Z,57.597
2022-11-15T21:28:33.660Z,58.384
2022-11-15T21:43:36.288Z,57.821
2022-11-15T21:58:38.849Z,57.537
2022-11-15T22:13:41.194Z,55.615
2022-11-15T22:28:44.258Z,57.456
2022-11-15T22:43:46.528Z,56.915
2022-11-15T22:58:48.848Z,57.951
2022-11-15T23:13:51.106Z,57.481
2022-11-15T23:28:53.390Z,57.009
2022-11-15T23:43:55.732Z,56.61
2022-11-15T23:58:58.178Z,56.933
